Time;durP1;ratioP1;P1;durP2;ratioP2;P2;SDS_P1;SDS_P2;PMS_P1;PMS_P2;Temp;Humidity;BMP_temperature;BMP_pressure;BME280_temperature;BME280_humidity;BME280_pressure;Samples;Min_cycle;Max_cycle;Signal;HPM_P1;HPM_P2
2021/06/16 00:00:22;;;;;;;4.03;2.08;;;22.00;59.30;;;;;;5085693;28;27470;-61
2021/06/16 00:03:07;;;;;;;2.25;1.95;;;22.00;59.40;;;;;;5085271;28;27494;-61
2021/06/16 00:05:51;;;;;;;2.35;1.98;;;22.00;59.30;;;;;;5084927;28;27425;-61
2021/06/16 00:08:36;;;;;;;2.20;1.75;;;22.00;59.50;;;;;;5085656;28;27851;-61
2021/06/16 00:11:20;;;;;;;2.53;2.33;;;21.90;59.50;;;;;;5081751;28;27305;-61
2021/06/16 00:14:05;;;;;;;3.22;2.92;;;21.90;59.60;;;;;;5084713;28;27343;-61
2021/06/16 00:16:50;;;;;;;2.70;1.90;;;21.90;59.50;;;;;;5067350;28;27432;-61
2021/06/16 00:19:34;;;;;;;5.43;2.00;;;21.80;59.70;;;;;;5084504;28;27844;-61
2021/06/16 00:22:19;;;;;;;3.15;2.10;;;21.80;59.70;;;;;;5067011;28;27512;-62
2021/06/16 00:25:05;;;;;;;3.58;2.30;;;21.80;59.70;;;;;;5067201;28;27406;-62
2021/06/16 00:27:52;;;;;;;4.85;2.20;;;21.70;59.70;;;;;;5067178;28;27372;-63
2021/06/16 00:30:39;;;;;;;3.63;2.20;;;21.70;59.80;;;;;;5067276;28;27460;-62
2021/06/16 00:33:25;;;;;;;2.95;1.98;;;21.60;59.80;;;;;;5084485;28;27423;-62
2021/06/16 00:36:12;;;;;;;2.30;2.10;;;21.60;59.90;;;;;;5070032;28;27436;-61
2021/06/16 00:38:59;;;;;;;4.80;2.20;;;21.50;59.90;;;;;;5084408;28;27394;-61
2021/06/16 00:41:46;;;;;;;4.95;2.28;;;21.50;60.10;;;;;;5084082;28;27374;-61
2021/06/16 00:44:36;;;;;;;3.58;2.05;;;21.50;60.10;;;;;;5083431;28;27582;-61
2021/06/16 00:47:23;;;;;;;4.40;2.22;;;21.50;60.10;;;;;;5070665;28;27458;-62
2021/06/16 00:50:12;;;;;;;5.25;2.17;;;21.40;60.20;;;;;;5081078;28;27404;-61
2021/06/16 00:52:59;;;;;;;4.78;2.17;;;21.40;60.70;;;;;;5083939;28;27497;-62
2021/06/16 00:55:46;;;;;;;2.85;2.22;;;21.40;60.30;;;;;;5084905;28;27530;-62
2021/06/16 00:58:33;;;;;;;3.65;2.25;;;21.30;60.40;;;;;;5084045;28;27415;-61
2021/06/16 01:01:27;;;;;;;3.47;2.20;;;21.30;60.50;;;;;;5083819;28;27387;-61
2021/06/16 01:04:25;;;;;;;3.08;2.05;;;21.30;60.50;;;;;;5080176;28;27336;-61
2021/06/16 01:07:16;;;;;;;3.03;2.08;;;21.20;60.50;;;;;;5083893;28;27336;-61
2021/06/16 01:10:04;;;;;;;2.20;1.88;;;21.20;60.50;;;;;;5083814;28;27431;-61
2021/06/16 01:13:23;;;;;;;2.65;2.08;;;21.20;60.70;;;;;;5066798;27;27386;-62
2021/06/16 01:16:19;;;;;;;4.65;2.63;;;21.20;60.70;;;;;;5084272;28;27496;-62
2021/06/16 01:19:23;;;;;;;3.92;1.95;;;21.10;60.80;;;;;;5066444;28;27474;-62
2021/06/16 01:22:36;;;;;;;2.75;2.10;;;21.10;61.00;;;;;;5084353;28;27493;-61
2021/06/16 01:25:48;;;;;;;5.28;2.78;;;21.10;61.10;;;;;;5083281;28;27463;-61
2021/06/16 01:28:44;;;;;;;3.72;2.42;;;21.10;61.20;;;;;;5083193;28;27349;-62
2021/06/16 01:31:32;;;;;;;4.25;2.40;;;21.00;61.10;;;;;;5083346;28;27404;-61
2021/06/16 01:34:21;;;;;;;7.15;3.20;;;21.00;61.20;;;;;;5066086;28;27407;-62
2021/06/16 01:37:08;;;;;;;5.25;2.03;;;21.00;61.20;;;;;;5066140;28;27402;-61
2021/06/16 01:39:56;;;;;;;2.53;2.15;;;21.00;61.40;;;;;;5069498;28;27878;-61
2021/06/16 01:42:44;;;;;;;3.63;2.22;;;20.90;61.40;;;;;;5097559;27;27446;-62
2021/06/16 01:45:32;;;;;;;3.33;2.00;;;20.90;61.40;;;;;;5081898;28;27498;-61
2021/06/16 01:48:20;;;;;;;3.40;2.28;;;20.90;61.40;;;;;;5069299;28;27388;-61
2021/06/16 01:51:08;;;;;;;2.97;2.35;;;20.80;61.40;;;;;;5097303;27;27354;-62
2021/06/16 01:53:55;;;;;;;5.10;3.15;;;20.80;61.40;;;;;;5082546;28;27433;-61
2021/06/16 01:56:42;;;;;;;5.95;2.90;;;20.80;61.60;;;;;;5083175;28;27493;-61
2021/06/16 01:59:30;;;;;;;2.40;1.98;;;20.70;61.70;;;;;;5097567;27;27407;-61
2021/06/16 02:02:17;;;;;;;2.95;2.20;;;20.70;61.80;;;;;;5083903;28;27952;-61
2021/06/16 02:05:08;;;;;;;2.53;2.30;;;20.70;61.70;;;;;;5079630;28;27431;-61
2021/06/16 02:08:05;;;;;;;5.88;2.45;;;20.70;62.00;;;;;;5079872;28;27344;-61
2021/06/16 02:10:53;;;;;;;2.85;2.45;;;20.70;61.90;;;;;;5083696;28;27395;-61
2021/06/16 02:13:46;;;;;;;2.70;2.28;;;20.60;62.10;;;;;;5082813;28;27845;-61
2021/06/16 02:16:54;;;;;;;3.28;2.30;;;20.60;62.10;;;;;;5051741;28;27412;-61
2021/06/16 02:19:41;;;;;;;5.18;2.60;;;20.60;62.10;;;;;;5082741;28;27491;-61
2021/06/16 02:22:28;;;;;;;2.78;2.25;;;20.60;62.30;;;;;;5082437;28;27372;-61
2021/06/16 02:25:16;;;;;;;2.90;2.33;;;20.50;62.40;;;;;;5079641;28;27989;-61
2021/06/16 02:28:04;;;;;;;4.38;2.55;;;20.50;62.50;;;;;;5083622;28;27416;-60
2021/06/16 02:30:51;;;;;;;3.30;2.80;;;20.50;62.60;;;;;;5065776;28;27419;-61
2021/06/16 02:33:38;;;;;;;2.50;2.30;;;20.50;62.60;;;;;;5082653;28;27478;-61
2021/06/16 02:36:25;;;;;;;6.72;2.25;;;20.40;62.60;;;;;;5068582;28;27423;-61
2021/06/16 02:39:19;;;;;;;2.25;2.00;;;20.40;62.70;;;;;;5085861;28;27379;-61
2021/06/16 02:42:07;;;;;;;3.58;2.63;;;20.40;62.70;;;;;;5086902;28;27387;-61
2021/06/16 02:44:54;;;;;;;2.95;2.30;;;20.40;62.70;;;;;;5071504;28;27643;-61
2021/06/16 02:47:43;;;;;;;5.45;2.10;;;20.30;62.70;;;;;;5100455;27;27932;-61
2021/06/16 02:50:30;;;;;;;2.55;2.22;;;20.30;62.70;;;;;;5085581;28;27402;-61
2021/06/16 02:53:20;;;;;;;5.68;2.17;;;20.30;62.80;;;;;;5068709;28;27333;-61
2021/06/16 02:56:07;;;;;;;6.32;2.42;;;20.30;62.90;;;;;;5071948;28;27490;-61
2021/06/16 02:58:54;;;;;;;7.45;3.00;;;20.20;63.00;;;;;;5086041;28;27348;-61
2021/06/16 03:01:43;;;;;;;4.57;2.30;;;20.20;63.00;;;;;;5086726;28;27339;-61
2021/06/16 03:04:30;;;;;;;3.60;2.53;;;20.20;63.10;;;;;;5086150;28;27427;-62
2021/06/16 03:07:18;;;;;;;5.30;2.30;;;20.20;63.20;;;;;;5054374;28;27398;-61
2021/06/16 03:10:08;;;;;;;5.18;2.60;;;20.10;63.20;;;;;;5086596;28;27379;-61
2021/06/16 03:12:55;;;;;;;3.55;2.35;;;20.10;63.40;;;;;;5082272;28;27428;-61
2021/06/16 03:15:43;;;;;;;3.42;2.22;;;20.10;63.40;;;;;;5085560;28;27444;-61
2021/06/16 03:18:30;;;;;;;5.78;2.50;;;20.10;63.50;;;;;;5085818;28;27324;-61
2021/06/16 03:21:17;;;;;;;5.47;2.33;;;20.10;63.50;;;;;;5071300;28;27407;-61
2021/06/16 03:24:05;;;;;;;6.05;2.40;;;20.10;63.50;;;;;;5085844;28;27489;-61
2021/06/16 03:26:52;;;;;;;3.55;2.35;;;20.10;63.60;;;;;;5071543;28;27474;-61
2021/06/16 03:29:38;;;;;;;3.88;2.72;;;20.10;63.70;;;;;;5099673;27;27328;-61
2021/06/16 03:32:22;;;;;;;2.60;2.40;;;20.00;63.70;;;;;;5085550;28;27393;-61
2021/06/16 03:35:07;;;;;;;4.97;2.35;;;20.00;63.70;;;;;;5082312;28;27394;-61
2021/06/16 03:37:52;;;;;;;4.55;3.10;;;20.00;63.80;;;;;;5099939;27;27418;-61
2021/06/16 03:40:37;;;;;;;4.93;2.42;;;20.00;63.90;;;;;;5086240;28;27398;-61
2021/06/16 03:43:21;;;;;;;4.53;2.30;;;20.00;64.00;;;;;;5085107;28;27423;-61
2021/06/16 03:46:07;;;;;;;4.38;2.78;;;20.00;64.10;;;;;;5098213;28;27478;-61
2021/06/16 03:48:52;;;;;;;4.03;2.17;;;20.00;64.00;;;;;;5080969;28;27353;-61
2021/06/16 03:51:39;;;;;;;3.70;2.40;;;19.90;64.10;;;;;;5099527;27;27430;-61
2021/06/16 03:54:25;;;;;;;6.10;2.35;;;20.00;64.20;;;;;;5085109;28;27325;-61
2021/06/16 03:57:09;;;;;;;3.13;2.38;;;20.00;64.40;;;;;;5085180;28;27347;-61
2021/06/16 03:59:54;;;;;;;7.05;2.60;;;19.90;64.30;;;;;;5085711;28;27399;-61
2021/06/16 04:02:39;;;;;;;3.60;2.50;;;19.90;64.50;;;;;;5070419;28;27395;-61
2021/06/16 04:05:24;;;;;;;5.55;2.67;;;19.90;64.60;;;;;;5084709;28;27348;-61
2021/06/16 04:08:10;;;;;;;6.30;2.65;;;19.90;64.80;;;;;;5085712;28;27665;-61
2021/06/16 04:10:54;;;;;;;5.07;2.40;;;19.90;64.80;;;;;;5084929;28;27380;-61
2021/06/16 04:13:39;;;;;;;3.88;2.75;;;19.90;65.00;;;;;;5083223;28;27384;-61
2021/06/16 04:16:27;;;;;;;5.72;2.38;;;19.90;65.10;;;;;;5085166;28;27406;-61
2021/06/16 04:19:11;;;;;;;5.78;2.33;;;19.90;65.20;;;;;;5084739;28;27332;-61
2021/06/16 04:21:56;;;;;;;4.72;2.35;;;19.90;65.20;;;;;;5085608;28;27415;-61
2021/06/16 04:24:40;;;;;;;4.95;3.13;;;19.90;65.40;;;;;;5084362;28;27325;-61
2021/06/16 04:27:25;;;;;;;8.00;2.45;;;19.90;65.50;;;;;;5098817;27;27397;-61
2021/06/16 04:30:11;;;;;;;5.13;2.60;;;20.00;65.50;;;;;;5085327;28;27352;-62
2021/06/16 04:32:55;;;;;;;4.95;2.63;;;20.00;65.70;;;;;;5084605;28;27479;-61
2021/06/16 04:35:40;;;;;;;3.97;2.90;;;20.00;65.80;;;;;;5070243;28;27389;-61
2021/06/16 04:38:24;;;;;;;5.97;3.13;;;20.10;66.00;;;;;;5080982;28;27324;-61
2021/06/16 04:41:09;;;;;;;8.00;2.42;;;20.10;66.10;;;;;;5084648;28;27375;-61
2021/06/16 04:43:53;;;;;;;3.03;2.65;;;20.10;66.00;;;;;;5098433;27;27401;-61
2021/06/16 04:46:38;;;;;;;5.80;2.80;;;20.10;65.80;;;;;;5084874;28;27336;-61
2021/06/16 04:49:23;;;;;;;6.63;2.85;;;20.10;66.10;;;;;;5080984;28;27906;-61
2021/06/16 04:52:07;;;;;;;6.53;2.78;;;20.10;65.80;;;;;;5084715;28;27526;-61
2021/06/16 04:54:52;;;;;;;5.50;2.85;;;20.20;66.10;;;;;;5084319;28;27382;-61
2021/06/16 04:57:37;;;;;;;3.22;2.92;;;20.20;66.20;;;;;;5084936;28;27398;-61
2021/06/16 05:00:22;;;;;;;4.40;2.90;;;20.20;66.30;;;;;;5083369;28;27860;-61
2021/06/16 05:03:07;;;;;;;10.02;3.60;;;20.20;66.30;;;;;;5066538;28;27374;-61
2021/06/16 05:05:52;;;;;;;5.93;3.72;;;20.20;66.30;;;;;;5098292;27;27367;-61
2021/06/16 05:08:36;;;;;;;4.47;3.72;;;20.30;66.50;;;;;;5081511;28;27412;-61
2021/06/16 05:11:21;;;;;;;5.30;3.70;;;20.30;66.60;;;;;;5083631;28;27422;-63
2021/06/16 05:14:05;;;;;;;5.53;3.60;;;20.30;66.50;;;;;;5084371;28;27482;-61
2021/06/16 05:16:50;;;;;;;6.75;4.30;;;20.30;66.40;;;;;;5084653;28;27470;-61
2021/06/16 05:19:35;;;;;;;7.03;4.82;;;20.30;65.80;;;;;;5084310;28;27472;-61
2021/06/16 05:22:20;;;;;;;7.80;4.40;;;20.40;66.30;;;;;;5080504;28;27457;-61
2021/06/16 05:25:07;;;;;;;8.02;5.13;;;20.40;65.80;;;;;;5080435;28;27517;-61
2021/06/16 05:27:51;;;;;;;6.78;5.03;;;20.40;66.40;;;;;;5084353;28;27454;-62
2021/06/16 05:30:37;;;;;;;7.80;4.97;;;20.40;66.30;;;;;;5083756;28;27435;-62
2021/06/16 05:33:21;;;;;;;6.70;5.40;;;20.40;66.00;;;;;;5080421;28;27478;-62
2021/06/16 05:36:07;;;;;;;10.32;4.70;;;20.40;66.40;;;;;;5082811;28;27381;-62
2021/06/16 05:38:52;;;;;;;8.20;4.53;;;20.50;66.20;;;;;;5084066;28;27486;-62
2021/06/16 05:41:36;;;;;;;7.20;4.13;;;20.50;66.20;;;;;;5083308;28;27497;-62
2021/06/16 05:44:21;;;;;;;7.20;4.35;;;20.50;66.20;;;;;;5065548;28;27404;-62
2021/06/16 05:47:06;;;;;;;6.57;4.28;;;20.60;66.60;;;;;;5083882;28;27476;-62
2021/06/16 05:49:51;;;;;;;4.57;4.18;;;20.70;66.50;;;;;;5083435;28;27427;-62
2021/06/16 05:52:35;;;;;;;6.82;4.28;;;20.80;66.80;;;;;;5080130;28;27465;-62
2021/06/16 05:55:19;;;;;;;6.43;4.78;;;21.00;66.80;;;;;;5084058;28;27399;-62
2021/06/16 05:58:04;;;;;;;5.25;4.18;;;21.20;66.60;;;;;;5084055;28;27453;-62
2021/06/16 06:00:49;;;;;;;9.93;4.80;;;21.40;66.60;;;;;;5083824;28;27526;-62
2021/06/16 06:03:34;;;;;;;5.07;3.40;;;21.50;66.60;;;;;;5079774;28;27408;-62
2021/06/16 06:06:18;;;;;;;9.38;4.40;;;21.60;66.60;;;;;;5083875;28;27424;-62
2021/06/16 06:09:05;;;;;;;6.13;4.22;;;21.80;66.70;;;;;;5083312;28;27434;-63
2021/06/16 06:11:50;;;;;;;5.05;3.83;;;21.90;66.60;;;;;;5083688;28;27588;-62
2021/06/16 06:14:34;;;;;;;7.45;4.00;;;22.10;66.50;;;;;;5086760;28;27463;-62
2021/06/16 06:17:18;;;;;;;5.30;4.22;;;22.20;65.50;;;;;;5086584;28;27482;-63
2021/06/16 06:20:04;;;;;;;5.00;4.25;;;22.30;64.80;;;;;;5086346;28;27439;-63
2021/06/16 06:22:49;;;;;;;7.38;3.90;;;22.40;64.70;;;;;;5086631;28;27496;-62
2021/06/16 06:25:34;;;;;;;6.25;3.80;;;22.50;63.90;;;;;;5086592;28;27462;-62
2021/06/16 06:28:18;;;;;;;4.63;3.97;;;22.70;63.50;;;;;;5086732;28;27679;-62
2021/06/16 06:31:03;;;;;;;4.38;3.95;;;22.80;63.90;;;;;;5087042;28;27470;-63
2021/06/16 06:33:48;;;;;;;6.45;4.35;;;22.90;63.80;;;;;;5068729;28;27438;-63
2021/06/16 06:36:32;;;;;;;5.57;4.32;;;23.10;63.20;;;;;;5087346;28;27490;-64
2021/06/16 06:39:18;;;;;;;6.85;3.88;;;23.20;62.90;;;;;;5083521;28;27352;-63
2021/06/16 06:42:03;;;;;;;7.18;4.10;;;23.30;62.70;;;;;;5087134;28;27412;-63
2021/06/16 06:44:48;;;;;;;5.75;3.60;;;23.40;62.90;;;;;;5071734;28;27875;-63
2021/06/16 06:47:32;;;;;;;7.63;4.22;;;23.60;63.00;;;;;;5100895;27;27509;-63
2021/06/16 06:50:17;;;;;;;5.22;3.83;;;23.70;62.40;;;;;;5086260;28;27336;-64
2021/06/16 06:53:01;;;;;;;6.40;3.83;;;23.80;62.70;;;;;;5087361;28;27418;-63
2021/06/16 06:55:46;;;;;;;3.80;3.45;;;23.90;62.80;;;;;;5085996;28;27627;-63
2021/06/16 06:58:31;;;;;;;4.00;3.47;;;24.10;63.30;;;;;;5087279;28;26868;-64
2021/06/16 07:01:16;;;;;;;5.10;3.53;;;24.20;62.80;;;;;;5082896;28;27320;-63
2021/06/16 07:04:01;;;;;;;5.65;3.58;;;24.30;63.00;;;;;;5085860;28;27360;-63
2021/06/16 07:06:46;;;;;;;4.45;4.05;;;24.40;63.10;;;;;;5086844;28;27391;-65
2021/06/16 07:09:30;;;;;;;3.90;3.33;;;24.60;62.80;;;;;;5068540;28;27410;-63
2021/06/16 07:12:15;;;;;;;3.83;3.22;;;24.70;62.90;;;;;;5085951;28;27391;-63
2021/06/16 07:14:59;;;;;;;8.00;3.47;;;24.90;62.60;;;;;;5086215;28;27419;-63
2021/06/16 07:17:44;;;;;;;5.00;2.90;;;25.00;63.10;;;;;;5086247;28;27416;-63
2021/06/16 07:20:28;;;;;;;5.53;3.47;;;25.20;62.00;;;;;;5086932;28;27364;-63
2021/06/16 07:23:13;;;;;;;3.83;3.47;;;25.30;61.90;;;;;;5086252;28;27391;-64
2021/06/16 07:25:57;;;;;;;3.90;2.80;;;25.50;61.40;;;;;;5086825;28;27341;-63
2021/06/16 07:28:42;;;;;;;3.22;2.65;;;25.60;61.20;;;;;;5085790;28;27352;-63
2021/06/16 07:31:27;;;;;;;6.47;2.95;;;25.80;61.10;;;;;;5086754;28;26911;-64
2021/06/16 07:34:12;;;;;;;3.72;2.95;;;26.00;59.90;;;;;;5086594;28;27501;-64
2021/06/16 07:36:56;;;;;;;5.22;3.05;;;26.10;59.50;;;;;;5085788;28;27412;-64
2021/06/16 07:39:41;;;;;;;3.45;2.53;;;26.20;59.60;;;;;;5086298;28;27408;-64
2021/06/16 07:42:25;;;;;;;3.10;2.80;;;26.40;59.40;;;;;;5085477;28;27451;-64
2021/06/16 07:45:11;;;;;;;4.50;3.00;;;26.60;59.60;;;;;;5085595;28;27481;-64
2021/06/16 07:47:56;;;;;;;2.83;2.53;;;26.70;59.20;;;;;;5085322;28;27438;-64
2021/06/16 07:50:42;;;;;;;4.50;2.90;;;26.90;58.70;;;;;;5082166;28;27471;-64
2021/06/16 07:53:26;;;;;;;3.47;2.50;;;27.00;57.40;;;;;;5085107;28;27751;-64
2021/06/16 07:56:11;;;;;;;3.25;2.95;;;27.10;57.50;;;;;;5082229;28;27435;-65
2021/06/16 07:58:56;;;;;;;6.40;2.83;;;27.30;57.40;;;;;;5085912;28;27415;-64
2021/06/16 08:01:43;;;;;;;3.83;2.78;;;27.40;57.30;;;;;;5086006;28;27394;-64
2021/06/16 08:04:28;;;;;;;4.38;2.50;;;27.60;57.10;;;;;;5067832;28;27392;-64
2021/06/16 08:07:13;;;;;;;3.53;2.50;;;27.80;56.80;;;;;;5071089;28;27411;-64
2021/06/16 08:09:57;;;;;;;4.05;2.45;;;28.00;56.70;;;;;;5085309;28;27384;-64
2021/06/16 08:12:42;;;;;;;4.38;2.47;;;28.20;57.50;;;;;;5086068;28;27386;-65
2021/06/16 08:15:27;;;;;;;5.47;2.42;;;28.40;56.70;;;;;;5081978;28;27445;-64
2021/06/16 08:18:13;;;;;;;2.90;2.35;;;28.60;56.50;;;;;;5085454;28;27617;-65
2021/06/16 08:20:57;;;;;;;5.65;2.50;;;28.80;56.00;;;;;;5085904;28;27387;-65
2021/06/16 08:23:43;;;;;;;4.38;3.08;;;29.00;56.20;;;;;;5085421;28;27366;-65
2021/06/16 08:26:28;;;;;;;3.67;2.50;;;29.20;56.90;;;;;;5085571;28;27332;-65
2021/06/16 08:29:12;;;;;;;4.40;2.20;;;29.40;56.30;;;;;;5085752;28;27423;-65
2021/06/16 08:31:56;;;;;;;3.92;2.63;;;29.60;56.50;;;;;;5085752;28;27414;-65
2021/06/16 08:34:41;;;;;;;5.15;2.55;;;29.90;56.60;;;;;;5085284;28;27465;-65
2021/06/16 08:37:25;;;;;;;5.32;2.50;;;30.10;56.20;;;;;;5085253;28;27407;-65
2021/06/16 08:40:10;;;;;;;5.00;2.75;;;30.30;55.60;;;;;;5084824;28;27486;-64
2021/06/16 08:42:55;;;;;;;4.57;2.50;;;30.40;55.50;;;;;;5084442;28;27539;-64
2021/06/16 08:45:40;;;;;;;4.18;2.63;;;30.60;55.00;;;;;;5068798;28;27490;-65
2021/06/16 08:48:24;;;;;;;3.30;1.98;;;30.70;55.40;;;;;;5084686;28;27509;-64
2021/06/16 08:51:12;;;;;;;13.95;3.00;;;30.80;55.70;;;;;;5084342;28;27885;-63
2021/06/16 08:53:57;;;;;;;4.32;2.50;;;31.00;55.30;;;;;;5085095;28;27413;-66
2021/06/16 08:56:42;;;;;;;2.60;2.40;;;31.10;55.10;;;;;;5085135;28;27404;-63
2021/06/16 08:59:27;;;;;;;3.88;2.00;;;31.20;55.30;;;;;;5085015;28;27465;-65
2021/06/16 09:02:11;;;;;;;5.15;2.67;;;31.30;55.70;;;;;;5084932;28;27431;-65
2021/06/16 09:04:56;;;;;;;3.08;2.58;;;31.30;54.40;;;;;;5084636;28;27431;-67
2021/06/16 09:07:43;;;;;;;6.40;2.60;;;31.40;54.00;;;;;;5085216;28;27404;-68
2021/06/16 09:10:27;;;;;;;3.38;2.45;;;31.60;54.90;;;;;;5084151;28;27497;-67
2021/06/16 09:13:16;;;;;;;3.03;2.40;;;31.70;55.50;;;;;;5084775;28;27885;-67
2021/06/16 09:16:01;;;;;;;6.18;2.55;;;31.80;55.40;;;;;;5098393;27;27485;-67
2021/06/16 09:18:46;;;;;;;3.85;2.50;;;32.00;55.30;;;;;;5084261;28;27336;-67
2021/06/16 09:21:40;;;;;;;9.43;2.22;;;32.10;55.70;;;;;;5084746;28;27375;-67
2021/06/16 09:24:39;;;;;;;4.30;2.95;;;32.20;55.40;;;;;;5083652;28;27439;-68
2021/06/16 09:27:43;;;;;;;4.63;2.47;;;32.40;54.30;;;;;;5084222;28;27479;-67
2021/06/16 09:30:31;;;;;;;7.50;2.13;;;32.60;52.20;;;;;;5084817;28;27509;-68
2021/06/16 09:33:16;;;;;;;4.40;2.28;;;32.60;51.60;;;;;;5083829;28;27479;-67
2021/06/16 09:36:01;;;;;;;2.88;2.10;;;32.70;49.60;;;;;;5083900;28;27856;-68
2021/06/16 09:38:47;;;;;;;2.75;2.15;;;32.70;50.20;;;;;;5083563;28;27510;-67
2021/06/16 09:41:32;;;;;;;6.30;2.65;;;32.80;51.90;;;;;;5080640;28;27407;-67
2021/06/16 09:44:46;;;;;;;4.25;2.53;;;32.90;52.20;;;;;;5083880;28;27392;-66
2021/06/16 09:47:31;;;;;;;4.65;2.22;;;33.00;50.90;;;;;;5083312;28;27408;-67
2021/06/16 09:50:16;;;;;;;6.68;2.70;;;33.00;51.50;;;;;;5084191;28;27462;-68
2021/06/16 09:53:01;;;;;;;2.90;2.30;;;33.10;51.70;;;;;;5080378;28;27473;-67
2021/06/16 09:55:46;;;;;;;2.90;2.53;;;33.20;51.00;;;;;;5098100;27;27449;-67
2021/06/16 09:58:30;;;;;;;6.88;2.33;;;33.20;49.60;;;;;;5084077;28;27485;-67
2021/06/16 10:01:15;;;;;;;4.45;2.65;;;33.20;49.40;;;;;;5098014;27;27418;-67
2021/06/16 10:03:59;;;;;;;6.68;2.45;;;33.20;49.00;;;;;;5084466;28;27435;-68
2021/06/16 10:06:44;;;;;;;4.88;2.13;;;33.40;50.50;;;;;;5084437;28;27396;-68
2021/06/16 10:09:28;;;;;;;7.82;2.65;;;33.50;50.80;;;;;;5083823;28;27861;-67
2021/06/16 10:12:17;;;;;;;3.67;2.30;;;33.60;52.30;;;;;;5084249;28;27419;-67
2021/06/16 10:15:13;;;;;;;4.63;2.50;;;33.70;51.40;;;;;;5083330;28;27464;-68
2021/06/16 10:17:58;;;;;;;5.07;2.50;;;33.70;51.00;;;;;;5098965;27;27345;-68
2021/06/16 10:20:42;;;;;;;3.38;2.13;;;33.80;49.90;;;;;;5083148;28;27439;-67
2021/06/16 10:23:30;;;;;;;6.25;2.17;;;33.70;49.60;;;;;;5082942;28;27344;-68
2021/06/16 10:26:25;;;;;;;3.15;2.25;;;33.80;50.20;;;;;;5084227;28;27317;-67
2021/06/16 10:29:11;;;;;;;6.97;2.55;;;33.80;48.40;;;;;;5084092;28;27349;-67
2021/06/16 10:32:05;;;;;;;4.60;2.67;;;33.80;49.00;;;;;;5083693;28;27323;-67
2021/06/16 10:35:00;;;;;;;5.05;2.85;;;33.80;50.40;;;;;;5083006;28;27408;-69
2021/06/16 10:45:57;;;;;;;2.80;2.20;;;33.60;51.40;;;;;;5079606;28;27378;-67
2021/06/16 10:48:46;;;;;;;7.30;2.33;;;33.70;50.10;;;;;;5081912;28;27422;-67
2021/06/16 10:52:01;;;;;;;3.95;2.22;;;33.70;51.00;;;;;;5067867;28;27518;-67
2021/06/16 10:55:01;;;;;;;3.95;2.25;;;33.80;51.30;;;;;;5082018;28;27450;-68
2021/06/16 10:58:15;;;;;;;4.47;2.47;;;33.90;51.90;;;;;;5081482;28;27360;-68
2021/06/16 11:01:14;;;;;;;4.25;2.28;;;34.00;52.10;;;;;;5085482;28;27426;-69
2021/06/16 11:04:10;;;;;;;4.85;2.80;;;34.10;51.30;;;;;;5084659;28;27518;-66
2021/06/16 11:07:11;;;;;;;5.88;2.42;;;34.20;52.00;;;;;;5085456;28;27502;-66
2021/06/16 11:10:18;;;;;;;5.97;2.33;;;34.30;52.10;;;;;;5084932;28;27486;-66
2021/06/16 11:13:09;;;;;;;5.28;2.50;;;34.40;50.50;;;;;;5085343;28;27521;-66
2021/06/16 11:16:39;;;;;;;4.05;2.13;;;34.40;49.20;;;;;;5085101;28;27495;-67
2021/06/16 11:19:36;;;;;;;2.83;2.20;;;34.50;50.30;;;;;;5086310;28;27484;-68
2021/06/16 11:22:27;;;;;;;3.60;2.45;;;34.60;51.10;;;;;;5086861;28;27814;-67
2021/06/16 11:25:31;;;;;;;2.50;2.30;;;34.60;51.70;;;;;;5083273;28;27398;-67
2021/06/16 11:29:02;;;;;;;3.00;2.30;;;34.70;50.50;;;;;;5085897;28;27489;-66
2021/06/16 11:32:15;;;;;;;4.60;2.40;;;34.80;50.00;;;;;;5086281;28;27412;-66
2021/06/16 11:35:13;;;;;;;7.03;2.65;;;34.90;53.60;;;;;;5086563;28;27804;-67
2021/06/16 11:38:03;;;;;;;2.20;2.00;;;35.00;51.90;;;;;;5086309;28;27426;-68
2021/06/16 11:41:41;;;;;;;2.60;2.35;;;35.10;49.90;;;;;;5086310;28;27455;-66
2021/06/16 11:44:38;;;;;;;2.60;2.40;;;35.10;50.00;;;;;;5085047;28;27657;-67
2021/06/16 11:48:03;;;;;;;3.15;2.13;;;35.20;50.30;;;;;;5086586;28;27473;-67
2021/06/16 11:51:00;;;;;;;4.55;2.47;;;35.20;50.60;;;;;;5086054;28;27397;-67
2021/06/16 11:53:50;;;;;;;6.20;2.10;;;35.20;48.50;;;;;;5086108;28;27399;-67
2021/06/16 11:56:45;;;;;;;5.28;2.53;;;35.20;50.80;;;;;;5067713;28;27467;-66
2021/06/16 11:59:45;;;;;;;4.85;2.30;;;35.20;48.30;;;;;;5085537;28;27414;-66
2021/06/16 12:03:14;;;;;;;8.30;2.67;;;35.10;48.90;;;;;;5085096;28;27424;-66
2021/06/16 12:06:39;;;;;;;5.30;2.50;;;35.20;49.40;;;;;;5085707;28;27411;-66
2021/06/16 12:09:43;;;;;;;3.92;2.35;;;35.10;48.70;;;;;;5085033;28;27646;-66
2021/06/16 12:12:53;;;;;;;3.47;2.22;;;35.10;48.00;;;;;;5085983;28;27333;-66
2021/06/16 12:16:01;;;;;;;2.72;2.33;;;35.00;47.80;;;;;;5081677;28;27434;-66
2021/06/16 12:18:52;;;;;;;4.72;2.33;;;34.90;47.80;;;;;;5084450;28;27412;-66
2021/06/16 12:21:39;;;;;;;3.53;2.20;;;34.70;48.20;;;;;;5067593;28;27486;-66
2021/06/16 12:24:31;;;;;;;2.40;2.20;;;34.60;49.90;;;;;;5084481;28;27861;-66
2021/06/16 12:27:22;;;;;;;5.45;3.10;;;34.50;48.00;;;;;;5085486;28;27419;-66
2021/06/16 12:30:30;;;;;;;3.97;2.45;;;34.40;49.70;;;;;;5085840;28;27397;-66
2021/06/16 12:33:36;;;;;;;4.22;2.58;;;34.20;48.50;;;;;;5085465;28;27457;-66
2021/06/16 12:36:34;;;;;;;3.92;2.20;;;34.20;46.60;;;;;;5085681;28;27450;-66
2021/06/16 12:39:27;;;;;;;6.53;2.80;;;34.10;44.70;;;;;;5085659;28;27358;-66
2021/06/16 12:42:20;;;;;;;3.35;2.33;;;34.00;45.20;;;;;;5085666;28;27348;-65
2021/06/16 12:45:29;;;;;;;7.82;2.00;;;34.00;46.70;;;;;;5083793;28;27521;-68
2021/06/16 12:48:26;;;;;;;7.43;2.30;;;34.00;49.90;;;;;;5085102;28;27378;-66
2021/06/16 12:51:17;;;;;;;2.25;2.05;;;34.00;50.40;;;;;;5085338;28;27352;-66
2021/06/16 12:54:08;;;;;;;3.05;2.10;;;34.10;50.30;;;;;;5084999;28;27439;-65
2021/06/16 12:57:06;;;;;;;6.60;2.33;;;34.20;52.80;;;;;;5084241;28;27466;-66
2021/06/16 13:00:19;;;;;;;6.40;2.53;;;34.20;51.90;;;;;;5085235;28;27833;-66
2021/06/16 13:03:44;;;;;;;2.58;2.10;;;34.30;53.10;;;;;;5083726;28;27576;-66
2021/06/16 13:06:38;;;;;;;4.22;2.15;;;34.50;51.60;;;;;;5084985;28;27414;-66
2021/06/16 13:09:29;;;;;;;3.92;2.58;;;34.50;53.20;;;;;;5084185;28;27479;-66
2021/06/16 13:12:26;;;;;;;3.50;2.65;;;34.60;51.70;;;;;;5085092;28;27368;-66
2021/06/16 13:15:23;;;;;;;2.50;2.30;;;34.60;50.90;;;;;;5085077;28;27404;-66
2021/06/16 13:18:18;;;;;;;3.30;2.17;;;34.70;49.10;;;;;;5085183;28;27409;-66
2021/06/16 13:21:14;;;;;;;3.08;2.15;;;34.70;48.10;;;;;;5084257;28;27407;-66
2021/06/16 13:24:03;;;;;;;2.95;2.10;;;34.70;50.30;;;;;;5084757;28;27407;-70
2021/06/16 13:27:02;;;;;;;2.15;1.95;;;34.70;50.20;;;;;;5084060;28;27499;-66
2021/06/16 13:29:58;;;;;;;5.30;2.55;;;34.60;48.10;;;;;;5084191;28;27381;-66
2021/06/16 13:33:36;;;;;;;4.30;2.40;;;34.60;50.10;;;;;;5084384;28;27600;-66
2021/06/16 13:36:44;;;;;;;3.08;2.47;;;34.70;51.10;;;;;;5101473;27;27941;-66
2021/06/16 13:39:59;;;;;;;2.78;2.35;;;34.70;48.00;;;;;;5084724;28;27600;-65
2021/06/16 13:43:14;;;;;;;3.13;2.67;;;34.60;47.30;;;;;;5083170;28;27373;-66
2021/06/16 13:58:31;;;;;;;6.20;2.35;;;34.30;44.20;;;;;;5081752;28;27348;-73
2021/06/16 14:01:16;;;;;;;6.75;2.40;;;34.30;48.00;;;;;;5068296;28;27462;-66
2021/06/16 14:04:01;;;;;;;3.03;1.85;;;34.30;48.80;;;;;;5082360;28;27496;-66
2021/06/16 14:06:46;;;;;;;3.70;2.35;;;34.40;50.00;;;;;;5082702;28;27521;-66
2021/06/16 14:09:31;;;;;;;5.00;2.28;;;34.50;49.40;;;;;;5082652;28;27554;-66
2021/06/16 14:12:18;;;;;;;4.72;2.50;;;34.50;47.60;;;;;;5051019;28;27518;-66
2021/06/16 14:15:05;;;;;;;3.58;2.47;;;34.50;42.80;;;;;;5081997;28;27890;-66
2021/06/16 14:17:50;;;;;;;3.50;2.25;;;34.50;45.20;;;;;;5082106;28;27477;-67
2021/06/16 14:20:35;;;;;;;2.85;2.50;;;34.40;42.00;;;;;;5082596;28;27428;-66
2021/06/16 14:23:20;;;;;;;2.40;2.20;;;34.40;41.90;;;;;;5082364;28;27453;-66
2021/06/16 14:26:07;;;;;;;2.92;2.60;;;34.30;41.10;;;;;;5082383;28;27959;-66
2021/06/16 14:28:52;;;;;;;7.93;2.40;;;34.20;41.20;;;;;;5082250;28;27423;-66
2021/06/16 14:31:37;;;;;;;3.35;2.47;;;34.20;42.40;;;;;;5083809;28;27351;-65
2021/06/16 14:34:25;;;;;;;5.65;2.30;;;34.10;44.00;;;;;;5085599;28;27383;-65
2021/06/16 14:37:09;;;;;;;2.20;2.10;;;34.00;43.00;;;;;;5069597;28;27466;-65
2021/06/16 14:39:54;;;;;;;2.60;2.40;;;33.90;46.20;;;;;;5087490;28;27526;-72
2021/06/16 14:42:39;;;;;;;2.80;2.30;;;33.90;43.70;;;;;;5083957;28;27641;-66
2021/06/16 14:45:24;;;;;;;5.85;2.25;;;33.90;42.90;;;;;;5086525;28;27506;-66
2021/06/16 14:48:08;;;;;;;5.38;2.47;;;34.00;46.90;;;;;;5087094;28;27840;-72
2021/06/16 14:50:53;;;;;;;3.00;2.70;;;34.10;46.10;;;;;;5087127;28;27402;-66
2021/06/16 14:53:37;;;;;;;3.15;2.10;;;34.10;46.70;;;;;;5087130;28;27400;-66
2021/06/16 14:56:22;;;;;;;5.68;2.35;;;34.10;42.90;;;;;;5086563;28;27350;-67
2021/06/16 14:59:07;;;;;;;4.78;2.25;;;34.10;41.20;;;;;;5087288;28;27329;-65
2021/06/16 15:01:52;;;;;;;2.67;2.00;;;34.10;42.40;;;;;;5087179;28;27375;-65